Time;durP1;ratioP1;P1;durP2;ratioP2;P2;SDS_P1;SDS_P2;PMS_P1;PMS_P2;Temp;Humidity;BMP_temperature;BMP_pressure;BME280_temperature;BME280_humidity;BME280_pressure;Samples;Min_cycle;Max_cycle;Signal;HPM_P1;HPM_P2
2023/08/23 00:00:48;;;;;;;17.35;10.70;;;16.90;99.90;;;;;;5111174;28;20104;-70
2023/08/23 00:03:34;;;;;;;17.40;9.75;;;16.90;99.90;;;;;;5110903;28;20059;-77
2023/08/23 00:06:21;;;;;;;16.85;9.77;;;16.90;99.90;;;;;;5110353;28;20055;-79
2023/08/23 00:09:07;;;;;;;19.27;10.95;;;16.80;99.90;;;;;;5111643;28;20491;-77
2023/08/23 00:11:53;;;;;;;17.73;10.75;;;16.90;99.90;;;;;;5111826;28;20048;-82
2023/08/23 00:14:39;;;;;;;21.38;11.98;;;16.90;99.90;;;;;;5110268;28;20044;-78
2023/08/23 00:17:25;;;;;;;21.95;12.23;;;16.80;99.90;;;;;;5109854;28;20048;-82
2023/08/23 00:20:12;;;;;;;23.02;12.30;;;16.80;99.90;;;;;;5110569;28;20129;-81
2023/08/23 00:22:58;;;;;;;14.18;8.82;;;16.80;99.90;;;;;;5111233;28;20053;-79
2023/08/23 00:25:44;;;;;;;14.50;9.80;;;16.80;99.90;;;;;;5110075;28;20063;-81
2023/08/23 00:28:30;;;;;;;17.52;9.32;;;16.80;99.90;;;;;;5111554;28;20495;-77
2023/08/23 00:31:16;;;;;;;17.60;10.50;;;16.80;99.90;;;;;;5096675;28;20066;-80
2023/08/23 00:34:02;;;;;;;17.20;10.77;;;16.80;99.90;;;;;;5096144;28;20147;-80
2023/08/23 00:36:48;;;;;;;19.58;11.18;;;16.80;99.90;;;;;;5110983;28;20067;-80
2023/08/23 00:39:35;;;;;;;18.90;11.60;;;16.70;99.90;;;;;;5111052;28;20058;-80
2023/08/23 00:42:21;;;;;;;16.80;10.80;;;16.70;99.90;;;;;;5097866;28;20111;-81
2023/08/23 00:45:08;;;;;;;17.77;11.65;;;16.70;99.90;;;;;;5113343;28;20059;-76
2023/08/23 00:47:54;;;;;;;25.92;13.43;;;16.70;99.90;;;;;;5109950;28;20531;-72
2023/08/23 00:50:41;;;;;;;25.77;13.52;;;16.70;99.90;;;;;;5109419;28;20355;-71
2023/08/23 00:53:27;;;;;;;19.35;11.52;;;16.70;99.90;;;;;;5095394;28;20117;-71
2023/08/23 00:56:14;;;;;;;19.45;12.10;;;16.70;99.90;;;;;;5110516;28;20122;-72
2023/08/23 00:59:00;;;;;;;27.02;12.93;;;16.70;99.90;;;;;;5110191;28;20526;-77
2023/08/23 01:01:46;;;;;;;27.45;13.60;;;16.70;99.90;;;;;;5111111;28;20403;-71
2023/08/23 01:04:32;;;;;;;20.35;12.13;;;16.70;99.90;;;;;;5108574;28;20463;-73
2023/08/23 01:07:30;;;;;;;17.35;10.38;;;16.70;99.90;;;;;;5110136;28;20109;-75
2023/08/23 01:10:27;;;;;;;24.50;12.20;;;16.70;99.90;;;;;;5108813;28;20115;-72
2023/08/23 01:13:33;;;;;;;16.85;10.35;;;16.70;99.90;;;;;;5109037;28;20058;-72
2023/08/23 01:16:20;;;;;;;23.80;11.98;;;16.70;99.90;;;;;;5110327;28;20055;-70
2023/08/23 01:19:24;;;;;;;21.35;11.35;;;16.70;99.90;;;;;;5110224;28;20047;-73
2023/08/23 01:22:22;;;;;;;24.85;14.70;;;16.70;99.90;;;;;;5110350;28;20043;-75
2023/08/23 01:25:08;;;;;;;23.60;11.55;;;16.70;99.90;;;;;;5109033;28;20093;-71
2023/08/23 01:27:54;;;;;;;18.23;10.48;;;16.70;99.90;;;;;;5109304;28;20051;-70
2023/08/23 01:30:41;;;;;;;19.25;10.70;;;16.70;99.90;;;;;;5110211;28;20058;-70
2023/08/23 01:33:31;;;;;;;18.20;8.73;;;16.70;99.90;;;;;;5109925;28;20142;-71
2023/08/23 01:36:23;;;;;;;20.10;11.75;;;16.70;99.90;;;;;;5109601;28;20128;-70
2023/08/23 01:39:10;;;;;;;19.58;10.13;;;16.60;99.90;;;;;;5110203;28;20070;-70
2023/08/23 01:41:57;;;;;;;18.70;11.60;;;16.60;99.90;;;;;;5108617;28;20491;-71
2023/08/23 01:44:43;;;;;;;22.25;12.32;;;16.60;99.90;;;;;;5111433;28;20411;-70
2023/08/23 01:47:29;;;;;;;19.15;12.45;;;16.60;99.90;;;;;;5112911;28;20070;-70
2023/08/23 01:50:15;;;;;;;21.77;12.15;;;16.70;99.90;;;;;;5113999;28;20051;-73
2023/08/23 01:53:01;;;;;;;19.70;10.70;;;16.70;99.90;;;;;;5112564;28;20062;-69
2023/08/23 01:55:47;;;;;;;20.73;10.45;;;16.70;99.90;;;;;;5112333;28;20055;-78
2023/08/23 01:58:33;;;;;;;28.58;12.93;;;16.80;99.90;;;;;;5112559;28;20070;-77
2023/08/23 02:01:19;;;;;;;21.33;12.32;;;16.80;99.90;;;;;;5112774;28;20089;-76
2023/08/23 02:04:05;;;;;;;19.15;9.57;;;16.80;99.90;;;;;;5113377;28;20058;-80
2023/08/23 02:06:52;;;;;;;19.48;10.27;;;16.80;99.90;;;;;;5111968;28;20078;-77
2023/08/23 02:09:38;;;;;;;18.48;10.40;;;16.80;99.90;;;;;;5114147;28;20052;-78
2023/08/23 02:12:24;;;;;;;15.90;9.80;;;16.80;99.90;;;;;;5111836;28;20061;-79
2023/08/23 02:15:10;;;;;;;18.67;11.63;;;16.80;99.90;;;;;;5113826;28;20047;-80
2023/08/23 02:17:56;;;;;;;20.88;10.98;;;16.80;99.90;;;;;;5114208;28;20075;-79
2023/08/23 02:20:42;;;;;;;16.55;10.50;;;16.80;99.90;;;;;;5114750;28;20138;-77
2023/08/23 02:23:28;;;;;;;17.45;11.40;;;16.80;99.90;;;;;;5111207;28;20143;-80
2023/08/23 02:26:15;;;;;;;16.17;9.57;;;16.80;99.90;;;;;;5111806;28;20051;-75
2023/08/23 02:29:02;;;;;;;15.43;9.27;;;16.80;99.90;;;;;;5112899;28;20048;-76
2023/08/23 02:31:48;;;;;;;19.23;11.18;;;16.80;99.90;;;;;;5113000;28;20052;-72
2023/08/23 02:34:34;;;;;;;16.85;10.48;;;16.80;99.90;;;;;;5113529;28;20472;-71
2023/08/23 02:37:21;;;;;;;17.10;11.10;;;16.80;99.90;;;;;;5113151;28;20046;-75
2023/08/23 02:40:07;;;;;;;21.25;11.38;;;16.80;99.90;;;;;;5112365;28;20162;-74
2023/08/23 02:42:55;;;;;;;19.85;10.80;;;16.80;99.90;;;;;;5111735;28;20579;-73
2023/08/23 02:45:42;;;;;;;21.38;12.07;;;16.80;99.90;;;;;;5112821;28;20050;-71
2023/08/23 02:48:29;;;;;;;17.38;11.60;;;16.80;99.90;;;;;;5112012;28;20581;-70
2023/08/23 02:51:15;;;;;;;19.65;12.27;;;16.80;99.90;;;;;;5111925;28;20051;-74
2023/08/23 02:54:01;;;;;;;24.30;15.30;;;16.80;99.90;;;;;;5111242;28;20130;-69
2023/08/23 02:56:47;;;;;;;20.33;12.13;;;16.90;99.90;;;;;;5118244;28;20059;-69
2023/08/23 02:59:33;;;;;;;21.63;14.15;;;16.90;99.90;;;;;;5115293;28;20055;-70
2023/08/23 03:02:19;;;;;;;21.63;13.38;;;16.90;99.90;;;;;;5113312;28;20112;-69
2023/08/23 03:05:06;;;;;;;18.75;11.75;;;16.90;99.90;;;;;;5112380;28;20047;-75
2023/08/23 03:07:52;;;;;;;23.77;13.80;;;16.90;99.90;;;;;;5114248;28;20051;-78
2023/08/23 03:10:39;;;;;;;22.55;12.70;;;16.90;99.90;;;;;;5113411;28;20067;-70
2023/08/23 03:13:25;;;;;;;20.73;12.48;;;16.90;99.90;;;;;;5097566;28;20130;-76
2023/08/23 03:16:11;;;;;;;23.85;14.10;;;16.90;99.90;;;;;;5096832;28;20506;-78
2023/08/23 03:18:58;;;;;;;21.08;13.00;;;16.90;99.90;;;;;;5112882;28;20055;-75
2023/08/23 03:21:44;;;;;;;21.35;12.73;;;16.90;99.90;;;;;;5110996;28;20047;-80
2023/08/23 03:24:30;;;;;;;23.65;14.48;;;16.90;99.90;;;;;;5111635;28;20563;-77
2023/08/23 03:27:18;;;;;;;25.73;14.32;;;16.90;99.90;;;;;;5112258;28;20058;-78
2023/08/23 03:30:04;;;;;;;23.00;12.52;;;16.80;99.90;;;;;;5111927;28;20047;-80
2023/08/23 03:32:50;;;;;;;22.63;12.88;;;16.80;99.90;;;;;;5112222;28;20406;-79
2023/08/23 03:35:36;;;;;;;19.73;12.65;;;16.80;99.90;;;;;;5111448;28;20590;-70
2023/08/23 03:38:22;;;;;;;26.58;13.55;;;16.80;99.90;;;;;;5110198;28;20495;-74
2023/08/23 03:41:13;;;;;;;26.92;14.00;;;16.80;99.90;;;;;;5111787;28;20108;-72
2023/08/23 03:43:59;;;;;;;22.60;13.18;;;16.80;99.90;;;;;;5111963;28;20044;-76
2023/08/23 03:46:45;;;;;;;18.50;12.38;;;16.80;99.90;;;;;;5111914;28;20052;-72
2023/08/23 03:49:31;;;;;;;20.02;13.27;;;16.80;99.90;;;;;;5110613;28;20479;-77
2023/08/23 03:52:18;;;;;;;17.02;11.73;;;16.80;99.90;;;;;;5097335;28;20079;-78
2023/08/23 03:55:04;;;;;;;22.48;13.60;;;16.80;99.90;;;;;;5111789;28;20047;-80
2023/08/23 03:57:51;;;;;;;23.17;14.63;;;16.90;99.90;;;;;;5110380;28;20062;-78
2023/08/23 04:00:37;;;;;;;22.42;14.10;;;16.80;99.90;;;;;;5111785;28;20052;-80
2023/08/23 04:03:23;;;;;;;26.75;13.70;;;16.80;99.90;;;;;;5111586;28;20047;-80
2023/08/23 04:06:09;;;;;;;23.73;13.68;;;16.80;99.90;;;;;;5110148;28;20780;-80
2023/08/23 04:08:55;;;;;;;28.75;15.05;;;16.80;99.90;;;;;;5096481;28;20054;-71
2023/08/23 04:11:41;;;;;;;22.10;13.82;;;16.80;99.90;;;;;;5111029;28;20491;-79
2023/08/23 04:14:27;;;;;;;20.98;13.88;;;16.80;99.90;;;;;;5109947;28;20061;-79
2023/08/23 04:17:13;;;;;;;26.40;14.63;;;16.80;99.90;;;;;;5111300;28;20467;-78
2023/08/23 04:20:00;;;;;;;26.75;14.95;;;16.80;99.90;;;;;;5110034;28;20059;-74
2023/08/23 04:22:46;;;;;;;21.17;14.30;;;16.80;99.90;;;;;;5110998;28;20058;-70
2023/08/23 04:25:32;;;;;;;22.58;13.73;;;16.80;99.90;;;;;;5110592;28;20418;-80
2023/08/23 04:28:19;;;;;;;28.08;15.27;;;16.80;99.90;;;;;;5113643;28;20055;-79
2023/08/23 04:31:05;;;;;;;23.27;12.85;;;16.90;99.90;;;;;;5117103;28;20407;-79
2023/08/23 04:33:52;;;;;;;20.90;14.05;;;16.90;99.90;;;;;;5118453;28;20513;-79
2023/08/23 04:36:38;;;;;;;22.40;13.80;;;16.80;99.90;;;;;;5110062;28;20134;-73
2023/08/23 04:39:25;;;;;;;26.50;13.77;;;16.80;99.90;;;;;;5110880;28;20047;-72
2023/08/23 04:42:11;;;;;;;23.40;14.88;;;16.80;99.90;;;;;;5110744;28;20047;-77
2023/08/23 04:44:59;;;;;;;22.10;13.57;;;16.70;99.90;;;;;;5109302;28;20051;-74
2023/08/23 04:47:45;;;;;;;18.25;11.40;;;16.70;99.90;;;;;;5109547;28;20047;-77
2023/08/23 04:50:33;;;;;;;20.83;13.00;;;16.70;99.90;;;;;;5109552;28;20050;-77
2023/08/23 04:53:19;;;;;;;23.83;13.75;;;16.60;99.90;;;;;;5109342;28;20470;-70
2023/08/23 04:56:05;;;;;;;22.58;14.25;;;16.60;99.90;;;;;;5110480;28;20048;-79
2023/08/23 04:58:53;;;;;;;21.30;13.85;;;16.60;99.90;;;;;;5110719;28;20055;-72
2023/08/23 05:01:39;;;;;;;22.60;13.88;;;16.60;99.90;;;;;;5110383;28;20055;-78
2023/08/23 05:04:25;;;;;;;21.90;13.30;;;16.60;99.90;;;;;;5110478;28;20079;-75
2023/08/23 05:07:11;;;;;;;22.70;14.38;;;16.60;99.90;;;;;;5110536;28;20131;-73
2023/08/23 05:09:57;;;;;;;24.40;15.23;;;16.60;99.90;;;;;;5109021;28;20043;-75
2023/08/23 05:12:43;;;;;;;26.80;14.55;;;16.50;99.90;;;;;;5109895;28;20476;-76
2023/08/23 05:15:29;;;;;;;22.50;13.25;;;16.50;99.90;;;;;;5109577;28;20055;-73
2023/08/23 05:18:15;;;;;;;22.45;14.25;;;16.60;99.90;;;;;;5110895;28;20384;-72
2023/08/23 05:21:03;;;;;;;26.05;14.88;;;16.40;99.90;;;;;;5114465;28;20087;-71
2023/08/23 05:23:50;;;;;;;21.23;13.38;;;16.40;99.90;;;;;;5114459;28;20050;-69
2023/08/23 05:26:36;;;;;;;22.70;13.93;;;16.40;99.90;;;;;;5114158;28;20055;-80
2023/08/23 05:29:22;;;;;;;21.90;12.85;;;16.40;99.90;;;;;;5113967;28;20048;-71
2023/08/23 05:32:09;;;;;;;21.88;14.88;;;16.40;99.90;;;;;;5113950;28;20044;-79
2023/08/23 05:34:56;;;;;;;19.30;12.07;;;16.40;99.90;;;;;;5114325;28;20047;-73
2023/08/23 05:37:42;;;;;;;18.83;12.45;;;16.30;99.90;;;;;;5114412;28;20043;-71
2023/08/23 05:40:28;;;;;;;21.63;13.20;;;16.30;99.90;;;;;;5114244;28;20059;-77
2023/08/23 05:43:14;;;;;;;21.20;12.77;;;16.30;99.90;;;;;;5114317;28;20117;-77
2023/08/23 05:46:02;;;;;;;19.60;12.52;;;16.40;99.90;;;;;;5113991;28;20070;-79
2023/08/23 05:48:48;;;;;;;21.10;13.68;;;16.40;99.90;;;;;;5113957;28;20466;-76
2023/08/23 05:51:34;;;;;;;23.95;12.95;;;16.50;99.90;;;;;;5113589;28;20142;-72
2023/08/23 05:54:22;;;;;;;20.73;13.90;;;16.60;99.90;;;;;;5113949;28;20492;-78
2023/08/23 05:57:08;;;;;;;24.67;15.00;;;16.60;99.90;;;;;;5113781;28;20070;-70
2023/08/23 05:59:54;;;;;;;23.85;15.25;;;16.70;99.90;;;;;;5114254;28;20059;-73
2023/08/23 06:02:40;;;;;;;25.63;15.07;;;16.70;99.90;;;;;;5113670;28;20415;-70
2023/08/23 06:05:26;;;;;;;23.80;15.63;;;16.70;99.90;;;;;;5118180;28;20055;-75
2023/08/23 06:08:12;;;;;;;20.10;13.73;;;16.70;99.90;;;;;;5114392;28;20047;-77
2023/08/23 06:10:58;;;;;;;23.95;15.63;;;16.70;99.90;;;;;;5114034;28;20059;-81
2023/08/23 06:13:44;;;;;;;20.83;13.77;;;16.80;99.90;;;;;;5113738;28;20091;-79
2023/08/23 06:16:30;;;;;;;21.13;14.45;;;16.80;99.90;;;;;;5113319;28;20570;-72
2023/08/23 06:19:17;;;;;;;24.50;15.20;;;16.80;99.90;;;;;;5113558;28;20410;-74
2023/08/23 06:22:03;;;;;;;22.38;15.13;;;16.90;99.90;;;;;;5112161;28;20051;-70
2023/08/23 06:24:49;;;;;;;24.65;15.30;;;17.00;99.90;;;;;;5113014;28;20478;-71
2023/08/23 06:27:35;;;;;;;28.85;16.13;;;17.10;99.90;;;;;;5112011;28;20060;-71
2023/08/23 06:30:22;;;;;;;24.77;16.10;;;17.30;99.90;;;;;;5111001;28;20043;-79
2023/08/23 06:33:08;;;;;;;28.35;17.58;;;17.50;99.90;;;;;;5113379;28;20830;-74
2023/08/23 06:35:54;;;;;;;30.08;17.73;;;17.60;99.90;;;;;;5098999;28;20048;-76
2023/08/23 06:38:44;;;;;;;24.75;16.13;;;17.70;99.90;;;;;;5114920;27;20058;-75
2023/08/23 06:41:30;;;;;;;26.35;16.85;;;17.90;99.90;;;;;;5112236;28;20516;-76
2023/08/23 06:44:16;;;;;;;25.17;15.82;;;18.00;99.90;;;;;;5113444;28;20055;-77
2023/08/23 06:47:02;;;;;;;25.55;16.63;;;18.20;99.90;;;;;;5111620;28;20048;-77
2023/08/23 06:49:48;;;;;;;26.00;16.80;;;18.40;99.90;;;;;;5113326;28;20099;-75
2023/08/23 06:52:35;;;;;;;25.02;17.73;;;18.50;99.90;;;;;;5105397;28;20055;-71
2023/08/23 06:55:21;;;;;;;26.95;16.75;;;18.70;99.90;;;;;;5112551;28;20058;-72
2023/08/23 06:58:07;;;;;;;27.27;17.42;;;18.80;99.90;;;;;;5111878;28;20135;-74
2023/08/23 07:00:56;;;;;;;23.05;15.20;;;18.90;99.90;;;;;;5111933;28;20517;-75
2023/08/23 07:03:44;;;;;;;22.40;15.85;;;19.10;99.90;;;;;;5111614;28;20079;-70
2023/08/23 07:06:31;;;;;;;24.75;16.38;;;19.30;99.90;;;;;;5112597;28;20056;-71
2023/08/23 07:09:17;;;;;;;27.10;16.55;;;19.40;99.90;;;;;;5112758;28;20055;-75
2023/08/23 07:12:03;;;;;;;24.02;17.42;;;19.40;99.90;;;;;;5112946;28;20562;-75
2023/08/23 07:14:49;;;;;;;22.63;15.10;;;19.40;99.90;;;;;;5114350;28;20055;-74
2023/08/23 07:17:36;;;;;;;27.95;15.70;;;19.60;99.90;;;;;;5112334;28;20040;-74
2023/08/23 07:20:22;;;;;;;23.23;15.57;;;19.80;99.90;;;;;;5112661;28;20043;-71
2023/08/23 07:23:09;;;;;;;32.92;15.75;;;19.90;99.90;;;;;;5111144;28;20428;-71
2023/08/23 07:25:55;;;;;;;23.83;15.68;;;19.90;99.90;;;;;;5100484;28;20048;-73
2023/08/23 07:28:41;;;;;;;27.23;16.77;;;19.90;99.90;;;;;;5114359;28;20142;-73
2023/08/23 07:31:27;;;;;;;24.27;14.93;;;20.00;99.90;;;;;;5112321;28;20050;-74
2023/08/23 07:34:14;;;;;;;21.15;14.77;;;20.10;99.90;;;;;;5111477;28;20047;-80
2023/08/23 07:37:00;;;;;;;22.13;15.40;;;20.20;99.90;;;;;;5112019;28;20051;-73
2023/08/23 07:39:46;;;;;;;22.05;13.88;;;20.30;99.90;;;;;;5112391;28;20055;-75
2023/08/23 07:42:32;;;;;;;24.13;13.55;;;20.50;99.90;;;;;;5110720;28;20112;-74
2023/08/23 07:45:18;;;;;;;22.08;13.80;;;20.70;99.90;;;;;;5112405;28;20059;-78
2023/08/23 07:48:04;;;;;;;22.08;13.10;;;20.90;99.90;;;;;;5116810;28;20039;-80
2023/08/23 07:50:51;;;;;;;21.10;13.65;;;21.10;99.90;;;;;;5112206;28;20112;-80
2023/08/23 07:53:38;;;;;;;23.60;13.70;;;21.20;99.90;;;;;;5111726;28;20054;-73
2023/08/23 07:56:24;;;;;;;20.20;13.00;;;21.30;99.90;;;;;;5112330;28;20138;-77
2023/08/23 07:59:10;;;;;;;18.80;12.02;;;21.50;99.90;;;;;;5112182;28;20109;-72
2023/08/23 08:01:57;;;;;;;26.85;14.10;;;21.50;99.90;;;;;;5113274;28;20102;-74
2023/08/23 08:04:43;;;;;;;19.35;12.18;;;21.80;99.90;;;;;;5111846;28;20105;-76
2023/08/23 08:07:30;;;;;;;22.38;12.48;;;21.90;99.90;;;;;;5111700;28;20208;-71
2023/08/23 08:10:16;;;;;;;17.85;11.20;;;21.90;99.90;;;;;;5111718;28;20130;-73
2023/08/23 08:13:02;;;;;;;18.05;12.93;;;22.00;99.90;;;;;;5111756;28;20406;-77
2023/08/23 08:15:49;;;;;;;19.33;13.02;;;22.00;99.90;;;;;;5112058;28;20043;-80
2023/08/23 08:18:35;;;;;;;22.05;12.57;;;22.10;99.90;;;;;;5111493;28;20043;-75
2023/08/23 08:21:21;;;;;;;20.92;11.23;;;22.40;99.90;;;;;;5109997;28;20066;-77
2023/08/23 08:24:07;;;;;;;21.42;12.82;;;22.60;99.90;;;;;;5111433;28;20050;-73
2023/08/23 08:26:53;;;;;;;20.23;12.68;;;22.80;99.90;;;;;;5111983;28;20051;-74
2023/08/23 08:29:43;;;;;;;18.90;11.43;;;22.70;99.90;;;;;;5112583;28;20044;-81
2023/08/23 08:32:29;;;;;;;16.27;10.95;;;22.90;99.90;;;;;;5111435;28;20054;-80
2023/08/23 08:35:15;;;;;;;20.10;12.23;;;23.10;99.90;;;;;;5109903;28;20125;-78
2023/08/23 08:38:01;;;;;;;19.92;11.68;;;23.20;99.90;;;;;;5109482;28;20418;-79
2023/08/23 08:40:47;;;;;;;20.08;10.30;;;23.20;99.90;;;;;;5111069;28;20128;-73
2023/08/23 08:43:35;;;;;;;17.67;11.30;;;23.50;99.90;;;;;;5096668;28;20128;-80
2023/08/23 08:46:21;;;;;;;19.42;11.55;;;23.70;99.90;;;;;;5111533;28;20063;-81
2023/08/23 08:49:07;;;;;;;17.67;10.48;;;23.70;99.90;;;;;;5113873;28;20082;-78
2023/08/23 08:51:59;;;;;;;15.35;9.05;;;23.50;99.90;;;;;;5113112;28;20059;-78
2023/08/23 08:54:48;;;;;;;17.33;9.38;;;23.50;99.90;;;;;;5108926;28;20196;-74
2023/08/23 08:57:34;;;;;;;16.27;7.82;;;23.60;99.90;;;;;;5108635;28;20056;-75
2023/08/23 09:00:26;;;;;;;12.98;7.68;;;23.60;99.90;;;;;;5109495;28;20062;-72
2023/08/23 09:03:12;;;;;;;16.15;9.05;;;23.90;99.90;;;;;;5110667;28;20500;-80
2023/08/23 09:06:01;;;;;;;13.18;9.07;;;24.00;99.90;;;;;;5111712;28;20052;-72
2023/08/23 09:08:47;;;;;;;15.57;8.38;;;24.00;99.90;;;;;;5111341;28;20399;-75
2023/08/23 09:11:34;;;;;;;11.35;6.97;;;24.20;99.90;;;;;;5109518;28;20426;-71
2023/08/23 09:14:21;;;;;;;11.05;6.88;;;24.30;99.90;;;;;;5110033;28;20058;-73
2023/08/23 09:17:10;;;;;;;16.42;7.28;;;24.50;99.90;;;;;;5111303;28;20051;-73
2023/08/23 09:19:56;;;;;;;13.50;7.88;;;24.20;99.90;;;;;;5112624;28;20075;-79
2023/08/23 09:22:43;;;;;;;12.18;6.85;;;24.00;99.90;;;;;;5111182;28;20082;-74
2023/08/23 09:25:30;;;;;;;14.55;7.03;;;23.90;99.90;;;;;;5109352;28;20426;-71
2023/08/23 09:28:16;;;;;;;13.25;7.55;;;24.20;99.90;;;;;;5110494;28;20083;-77
2023/08/23 09:31:03;;;;;;;12.00;7.55;;;24.30;99.90;;;;;;5110368;28;20407;-74
2023/08/23 09:33:49;;;;;;;19.45;11.18;;;24.60;99.90;;;;;;5110243;28;20039;-72
2023/08/23 09:36:41;;;;;;;17.58;11.85;;;24.80;99.90;;;;;;5110136;28;20120;-75
2023/08/23 09:39:27;;;;;;;17.67;12.85;;;25.00;99.90;;;;;;5110020;28;20051;-78
2023/08/23 09:42:15;;;;;;;16.95;11.65;;;25.50;99.90;;;;;;5110913;28;20399;-82
2023/08/23 09:45:02;;;;;;;15.65;9.45;;;25.70;99.90;;;;;;5108553;28;20089;-81
2023/08/23 09:47:53;;;;;;;14.45;8.93;;;26.00;99.90;;;;;;5110595;28;20529;-76
2023/08/23 09:50:40;;;;;;;11.15;6.00;;;25.50;99.90;;;;;;5111692;28;20105;-72
2023/08/23 09:53:33;;;;;;;9.07;5.30;;;25.20;99.90;;;;;;5112462;28;20043;-78
2023/08/23 09:56:20;;;;;;;10.52;5.28;;;25.00;99.90;;;;;;5110692;28;20069;-73
2023/08/23 09:59:06;;;;;;;10.70;6.32;;;24.90;99.90;;;;;;5110538;28;20135;-81
2023/08/23 10:01:53;;;;;;;8.23;5.15;;;24.50;99.90;;;;;;5107942;28;20048;-79
2023/08/23 10:04:42;;;;;;;11.98;6.10;;;24.30;99.90;;;;;;5110593;28;20403;-77
2023/08/23 10:07:29;;;;;;;8.85;3.78;;;24.10;99.90;;;;;;5113999;28;20055;-76
2023/08/23 10:10:15;;;;;;;14.05;4.10;;;24.00;99.90;;;;;;5115412;28;20413;-77
2023/08/23 10:13:05;;;;;;;10.52;3.05;;;24.00;99.90;;;;;;5113002;28;20043;-72
2023/08/23 10:15:53;;;;;;;10.18;3.40;;;23.90;99.90;;;;;;5113411;28;20131;-77
2023/08/23 10:18:40;;;;;;;13.38;3.42;;;23.80;99.90;;;;;;5112925;28;20417;-70
2023/08/23 10:21:30;;;;;;;8.95;2.75;;;23.80;99.90;;;;;;5114087;28;20058;-77
2023/08/23 10:24:16;;;;;;;9.30;2.75;;;23.70;99.90;;;;;;5111784;28;20056;-72
2023/08/23 10:27:07;;;;;;;8.23;2.33;;;23.80;99.90;;;;;;5113914;28;20048;-73
2023/08/23 10:29:53;;;;;;;11.93;3.30;;;23.80;99.90;;;;;;5114181;27;20491;-75
2023/08/23 10:32:39;;;;;;;10.60;3.83;;;23.70;99.90;;;;;;5112985;28;20059;-77
2023/08/23 10:35:31;;;;;;;12.38;3.28;;;23.60;99.90;;;;;;5113825;28;20046;-75
2023/08/23 10:38:17;;;;;;;11.48;4.65;;;23.60;99.90;;;;;;5084528;28;20051;-79
2023/08/23 10:41:04;;;;;;;8.77;3.30;;;23.60;99.90;;;;;;5112702;28;20044;-72
2023/08/23 10:43:51;;;;;;;11.63;3.75;;;23.60;99.90;;;;;;5112481;28;20376;-71
2023/08/23 10:46:46;;;;;;;10.32;3.70;;;23.60;99.90;;;;;;5112459;28;20052;-72
2023/08/23 10:49:33;;;;;;;11.77;3.20;;;23.60;99.90;;;;;;5111880;28;20388;-72
2023/08/23 10:52:22;;;;;;;12.30;3.72;;;23.80;99.90;;;;;;5114306;28;20047;-81
2023/08/23 10:55:09;;;;;;;10.30;3.03;;;24.40;99.90;;;;;;5112436;28;20483;-74
2023/08/23 10:57:55;;;;;;;14.10;3.25;;;25.00;99.90;;;;;;5097731;28;20130;-77
2023/08/23 11:00:43;;;;;;;7.80;2.20;;;25.30;99.90;;;;;;5113861;28;20070;-72
2023/08/23 11:03:30;;;;;;;5.25;2.22;;;25.50;99.90;;;;;;5114618;28;20414;-77
2023/08/23 11:06:16;;;;;;;9.35;2.25;;;25.40;99.90;;;;;;5097540;28;20051;-81
2023/08/23 11:09:02;;;;;;;8.60;1.65;;;25.60;99.90;;;;;;5118678;28;20476;-74
2023/08/23 11:11:48;;;;;;;8.13;1.58;;;25.70;99.90;;;;;;5102225;28;20104;-73
2023/08/23 11:14:34;;;;;;;4.82;1.70;;;26.20;99.90;;;;;;5115523;28;20116;-78
2023/08/23 11:17:20;;;;;;;6.45;1.80;;;26.30;99.90;;;;;;5114418;28;20052;-73
2023/08/23 11:20:08;;;;;;;6.65;1.80;;;26.20;99.90;;;;;;5113607;28;20109;-74
2023/08/23 11:22:54;;;;;;;12.07;2.28;;;25.80;99.90;;;;;;5112869;27;20138;-75
2023/08/23 11:25:40;;;;;;;11.35;2.10;;;25.40;99.90;;;;;;5112402;28;20521;-77
2023/08/23 11:28:26;;;;;;;9.40;2.28;;;25.20;99.90;;;;;;5095744;28;20098;-74
2023/08/23 11:31:13;;;;;;;6.18;1.42;;;25.00;99.90;;;;;;5111383;28;20498;-73
2023/08/23 11:34:09;;;;;;;5.95;2.35;;;24.70;99.90;;;;;;5112748;28;20411;-73
2023/08/23 11:36:55;;;;;;;8.90;1.80;;;24.60;99.90;;;;;;5112537;28;20146;-71
2023/08/23 11:39:41;;;;;;;7.60;2.15;;;24.50;99.90;;;;;;5110007;28;20051;-72
2023/08/23 11:42:27;;;;;;;7.18;1.85;;;24.30;99.90;;;;;;5112480;28;20188;-72
2023/08/23 11:45:13;;;;;;;6.53;1.33;;;24.20;99.90;;;;;;5111319;28;20043;-77
2023/08/23 11:47:59;;;;;;;5.75;1.65;;;24.20;99.90;;;;;;5112096;28;20051;-75
2023/08/23 11:50:45;;;;;;;5.80;1.58;;;24.00;99.90;;;;;;5112534;28;20047;-71
2023/08/23 11:53:32;;;;;;;7.43;1.60;;;23.80;99.90;;;;;;5111866;28;20054;-75
2023/08/23 11:56:19;;;;;;;5.50;1.48;;;23.70;99.90;;;;;;5112167;28;20089;-77
2023/08/23 11:59:05;;;;;;;5.22;1.33;;;23.70;99.90;;;;;;5115941;28;20077;-71
2023/08/23 12:01:51;;;;;;;7.90;2.10;;;23.80;99.90;;;;;;5111855;28;20082;-73
2023/08/23 12:04:42;;;;;;;5.45;1.58;;;23.90;99.90;;;;;;5112084;28;20052;-74
2023/08/23 12:07:28;;;;;;;5.35;1.30;;;24.00;99.90;;;;;;5111388;28;20059;-78
2023/08/23 12:10:14;;;;;;;6.90;1.80;;;24.30;99.90;;;;;;5112115;28;20047;-77
2023/08/23 12:13:01;;;;;;;5.53;1.38;;;24.90;99.90;;;;;;5111090;28;20138;-72
2023/08/23 12:15:47;;;;;;;5.90;1.50;;;25.50;99.90;;;;;;5112218;28;20383;-72
2023/08/23 12:18:34;;;;;;;6.65;1.50;;;26.10;99.90;;;;;;5110828;28;20055;-80
2023/08/23 12:21:20;;;;;;;4.75;1.20;;;26.30;99.90;;;;;;5096331;28;20126;-71
2023/08/23 12:24:06;;;;;;;6.93;1.20;;;26.20;99.90;;;;;;5109073;28;20526;-70
2023/08/23 12:26:52;;;;;;;3.45;1.05;;;26.10;99.90;;;;;;5109100;28;20055;-73
2023/08/23 12:29:38;;;;;;;4.78;0.98;;;25.90;99.90;;;;;;5110324;28;20586;-72
2023/08/23 12:32:27;;;;;;;4.28;1.00;;;25.80;99.90;;;;;;5110775;28;20466;-74
2023/08/23 12:35:13;;;;;;;4.07;1.27;;;26.10;99.90;;;;;;5110940;28;20047;-74
2023/08/23 12:37:59;;;;;;;7.13;1.30;;;26.60;99.20;;;;;;5114121;28;20047;-77
2023/08/23 12:40:45;;;;;;;6.88;1.50;;;27.40;99.90;;;;;;5114646;28;20503;-72
2023/08/23 12:43:33;;;;;;;6.03;1.40;;;28.20;99.30;;;;;;5111637;28;20047;-73
2023/08/23 12:46:20;;;;;;;5.90;1.30;;;28.20;98.70;;;;;;5111215;28;20536;-75
2023/08/23 12:49:12;;;;;;;9.48;1.92;;;27.80;98.30;;;;;;5110999;28;20495;-72
2023/08/23 12:51:58;;;;;;;7.30;1.40;;;27.40;98.70;;;;;;5111832;28;20075;-73
2023/08/23 12:54:44;;;;;;;7.68;1.63;;;27.40;99.20;;;;;;5111040;28;20119;-73
2023/08/23 12:57:32;;;;;;;4.82;1.23;;;27.90;98.90;;;;;;5109556;28;20068;-76
2023/08/23 13:00:19;;;;;;;9.15;1.42;;;28.60;97.90;;;;;;5110041;28;20430;-73
2023/08/23 13:03:05;;;;;;;4.38;1.60;;;28.70;97.40;;;;;;5109631;28;20473;-74
2023/08/23 13:05:51;;;;;;;5.90;1.73;;;29.00;97.20;;;;;;5096164;28;20056;-77
2023/08/23 13:08:38;;;;;;;5.28;1.50;;;29.30;97.00;;;;;;5110986;28;20210;-72
2023/08/23 13:11:24;;;;;;;6.65;1.70;;;29.90;95.90;;;;;;5109163;28;20058;-71
2023/08/23 13:14:10;;;;;;;6.95;1.35;;;29.80;95.40;;;;;;5111052;28;20119;-76
2023/08/23 13:16:56;;;;;;;7.53;1.98;;;29.10;95.50;;;;;;5110937;28;20056;-73
2023/08/23 13:19:42;;;;;;;4.40;1.30;;;28.80;95.80;;;;;;5109458;28;20487;-77
2023/08/23 13:22:28;;;;;;;8.05;1.65;;;28.20;96.40;;;;;;5112083;28;20414;-71
2023/08/23 13:25:15;;;;;;;4.40;1.00;;;27.70;96.70;;;;;;5109981;28;20113;-75
2023/08/23 13:28:01;;;;;;;6.93;1.50;;;27.50;97.20;;;;;;5110599;28;20068;-80
2023/08/23 13:30:47;;;;;;;4.53;1.48;;;27.60;96.90;;;;;;5109518;28;20499;-74
2023/08/23 13:33:34;;;;;;;6.43;1.40;;;28.00;96.40;;;;;;5109233;28;20131;-71
2023/08/23 13:36:20;;;;;;;2.33;0.80;;;28.70;96.60;;;;;;5108698;28;20051;-74
2023/08/23 13:39:07;;;;;;;5.85;0.90;;;30.30;95.00;;;;;;5112374;28;20044;-80
2023/08/23 13:41:53;;;;;;;3.80;0.85;;;31.20;93.00;;;;;;5113558;28;20052;-72
2023/08/23 13:44:40;;;;;;;4.82;0.98;;;31.60;92.20;;;;;;5114231;28;20154;-74
2023/08/23 13:47:26;;;;;;;5.97;1.40;;;31.70;91.80;;;;;;5114302;28;20540;-77
2023/08/23 13:50:12;;;;;;;4.85;0.95;;;32.00;90.80;;;;;;5112742;28;20487;-72
2023/08/23 13:52:58;;;;;;;5.90;1.13;;;31.20;90.40;;;;;;5113619;28;20047;-80
2023/08/23 13:55:46;;;;;;;3.55;0.60;;;30.20;90.70;;;;;;5112692;28;20051;-79
2023/08/23 13:58:32;;;;;;;2.67;0.80;;;29.80;91.70;;;;;;5114061;28;20075;-79
2023/08/23 14:01:18;;;;;;;2.72;0.70;;;29.20;92.50;;;;;;5114312;28;20058;-80
2023/08/23 14:04:04;;;;;;;4.60;0.90;;;29.00;92.80;;;;;;5113735;28;20199;-74
2023/08/23 14:06:50;;;;;;;4.00;1.00;;;28.50;92.90;;;;;;5113390;28;20055;-79
2023/08/23 14:09:36;;;;;;;3.90;0.77;;;28.80;93.50;;;;;;5112311;28;20477;-72
2023/08/23 14:12:22;;;;;;;2.70;0.88;;;30.00;93.10;;;;;;5114419;28;20047;-75